sensor_id;sensor_type;location;lat;lon;timestamp;temperature;humidity
52709;DHT22;38606;52.986;6.980;2023-05-25T00:00:13;10.20;99.90
52709;DHT22;38606;52.986;6.980;2023-05-25T00:02:40;10.30;99.90
52709;DHT22;38606;52.986;6.980;2023-05-25T00:05:10;10.20;99.90
52709;DHT22;38606;52.986;6.980;2023-05-25T00:07:36;10.30;99.90
52709;DHT22;38606;52.986;6.980;2023-05-25T00:10:02;10.20;99.90
52709;DHT22;38606;52.986;6.980;2023-05-25T00:12:28;10.20;99.90
52709;DHT22;38606;52.986;6.980;2023-05-25T00:14:54;10.20;99.90
52709;DHT22;38606;52.986;6.980;2023-05-25T00:17:20;10.20;99.90
52709;DHT22;38606;52.986;6.980;2023-05-25T00:19:46;10.40;99.90
52709;DHT22;38606;52.986;6.980;2023-05-25T00:22:12;10.10;99.90
52709;DHT22;38606;52.986;6.980;2023-05-25T00:24:39;10.20;99.90
52709;DHT22;38606;52.986;6.980;2023-05-25T00:27:05;9.90;99.90
52709;DHT22;38606;52.986;6.980;2023-05-25T00:29:37;9.90;99.90
52709;DHT22;38606;52.986;6.980;2023-05-25T00:32:03;9.90;99.90
52709;DHT22;38606;52.986;6.980;2023-05-25T00:34:28;9.90;99.90
52709;DHT22;38606;52.986;6.980;2023-05-25T00:36:54;9.80;99.90
52709;DHT22;38606;52.986;6.980;2023-05-25T00:39:20;10.10;99.90
52709;DHT22;38606;52.986;6.980;2023-05-25T00:41:47;10.00;99.90
52709;DHT22;38606;52.986;6.980;2023-05-25T00:44:15;9.90;99.90
52709;DHT22;38606;52.986;6.980;2023-05-25T00:46:47;10.10;99.90
52709;DHT22;38606;52.986;6.980;2023-05-25T00:49:13;9.80;99.90
52709;DHT22;38606;52.986;6.980;2023-05-25T00:51:41;9.70;99.90
52709;DHT22;38606;52.986;6.980;2023-05-25T00:54:07;9.70;99.90
52709;DHT22;38606;52.986;6.980;2023-05-25T00:56:37;9.80;99.90
52709;DHT22;38606;52.986;6.980;2023-05-25T00:59:05;9.90;99.90
52709;DHT22;38606;52.986;6.980;2023-05-25T01:01:37;9.70;99.90
52709;DHT22;38606;52.986;6.980;2023-05-25T01:04:12;9.80;99.90
52709;DHT22;38606;52.986;6.980;2023-05-25T01:06:41;9.60;99.90
52709;DHT22;38606;52.986;6.980;2023-05-25T01:09:10;9.70;99.90
52709;DHT22;38606;52.986;6.980;2023-05-25T01:11:40;9.70;99.90
52709;DHT22;38606;52.986;6.980;2023-05-25T01:14:07;9.70;99.90
52709;DHT22;38606;52.986;6.980;2023-05-25T01:16:34;9.80;99.90
52709;DHT22;38606;52.986;6.980;2023-05-25T01:19:02;9.60;99.90
52709;DHT22;38606;52.986;6.980;2023-05-25T01:24:04;9.50;99.90
52709;DHT22;38606;52.986;6.980;2023-05-25T01:26:45;9.60;99.90
52709;DHT22;38606;52.986;6.980;2023-05-25T01:29:14;9.70;99.90
52709;DHT22;38606;52.986;6.980;2023-05-25T01:31:42;9.50;99.90
52709;DHT22;38606;52.986;6.980;2023-05-25T01:34:10;9.50;99.90
52709;DHT22;38606;52.986;6.980;2023-05-25T01:36:36;9.50;99.90
52709;DHT22;38606;52.986;6.980;2023-05-25T01:39:04;11.80;99.90
52709;DHT22;38606;52.986;6.980;2023-05-25T01:41:30;9.40;99.90
52709;DHT22;38606;52.986;6.980;2023-05-25T01:43:56;9.20;99.90
52709;DHT22;38606;52.986;6.980;2023-05-25T01:46:36;9.40;99.90
52709;DHT22;38606;52.986;6.980;2023-05-25T01:49:24;9.30;99.90
52709;DHT22;38606;52.986;6.980;2023-05-25T01:52:33;9.10;99.90
52709;DHT22;38606;52.986;6.980;2023-05-25T01:55:05;9.10;99.90
52709;DHT22;38606;52.986;6.980;2023-05-25T01:57:36;9.40;99.90
52709;DHT22;38606;52.986;6.980;2023-05-25T02:00:04;9.40;99.90
52709;DHT22;38606;52.986;6.980;2023-05-25T02:02:32;9.50;99.90
52709;DHT22;38606;52.986;6.980;2023-05-25T02:04:58;9.30;99.90
52709;DHT22;38606;52.986;6.980;2023-05-25T02:07:24;9.40;99.90
52709;DHT22;38606;52.986;6.980;2023-05-25T02:09:50;9.20;99.90
52709;DHT22;38606;52.986;6.980;2023-05-25T02:12:16;9.40;99.90
52709;DHT22;38606;52.986;6.980;2023-05-25T02:14:42;9.20;99.90
52709;DHT22;38606;52.986;6.980;2023-05-25T02:17:07;9.20;99.90
52709;DHT22;38606;52.986;6.980;2023-05-25T02:19:34;9.20;99.90
52709;DHT22;38606;52.986;6.980;2023-05-25T02:22:00;9.00;99.90
52709;DHT22;38606;52.986;6.980;2023-05-25T02:24:25;9.20;99.90
52709;DHT22;38606;52.986;6.980;2023-05-25T02:26:51;9.10;99.90
52709;DHT22;38606;52.986;6.980;2023-05-25T02:29:17;9.30;99.90
52709;DHT22;38606;52.986;6.980;2023-05-25T02:31:43;9.40;99.90
52709;DHT22;38606;52.986;6.980;2023-05-25T02:34:09;9.10;99.90
52709;DHT22;38606;52.986;6.980;2023-05-25T02:36:36;9.20;99.90
52709;DHT22;38606;52.986;6.980;2023-05-25T02:39:02;9.20;99.90
52709;DHT22;38606;52.986;6.980;2023-05-25T02:41:27;9.20;99.90
52709;DHT22;38606;52.986;6.980;2023-05-25T02:43:53;9.20;99.90
52709;DHT22;38606;52.986;6.980;2023-05-25T02:46:19;9.20;99.90
52709;DHT22;38606;52.986;6.980;2023-05-25T02:48:46;9.20;99.90
52709;DHT22;38606;52.986;6.980;2023-05-25T02:51:11;9.20;99.90
52709;DHT22;38606;52.986;6.980;2023-05-25T02:53:37;9.00;99.90
52709;DHT22;38606;52.986;6.980;2023-05-25T02:56:03;9.10;99.90
52709;DHT22;38606;52.986;6.980;2023-05-25T02:58:30;9.10;99.90
52709;DHT22;38606;52.986;6.980;2023-05-25T03:00:56;9.40;99.90
52709;DHT22;38606;52.986;6.980;2023-05-25T03:03:25;9.10;99.90
52709;DHT22;38606;52.986;6.980;2023-05-25T03:05:51;9.40;99.90
52709;DHT22;38606;52.986;6.980;2023-05-25T03:08:17;8.80;99.90
52709;DHT22;38606;52.986;6.980;2023-05-25T03:10:43;9.30;99.90
52709;DHT22;38606;52.986;6.980;2023-05-25T03:13:09;9.20;99.90
52709;DHT22;38606;52.986;6.980;2023-05-25T03:15:35;9.10;99.90
52709;DHT22;38606;52.986;6.980;2023-05-25T03:18:01;9.20;99.90
52709;DHT22;38606;52.986;6.980;2023-05-25T03:20:27;9.10;99.90
52709;DHT22;38606;52.986;6.980;2023-05-25T03:22:54;8.80;99.90
52709;DHT22;38606;52.986;6.980;2023-05-25T03:25:20;9.00;99.90
52709;DHT22;38606;52.986;6.980;2023-05-25T03:27:45;8.90;99.90
52709;DHT22;38606;52.986;6.980;2023-05-25T03:30:12;9.00;99.90
52709;DHT22;38606;52.986;6.980;2023-05-25T03:32:37;9.00;99.90
52709;DHT22;38606;52.986;6.980;2023-05-25T03:35:04;9.00;99.90
52709;DHT22;38606;52.986;6.980;2023-05-25T03:37:30;8.90;99.90
52709;DHT22;38606;52.986;6.980;2023-05-25T03:39:56;9.20;99.90
52709;DHT22;38606;52.986;6.980;2023-05-25T03:42:21;9.10;99.90
52709;DHT22;38606;52.986;6.980;2023-05-25T03:44:47;8.90;99.90
52709;DHT22;38606;52.986;6.980;2023-05-25T03:47:13;9.10;99.90
52709;DHT22;38606;52.986;6.980;2023-05-25T03:49:38;9.10;99.90
52709;DHT22;38606;52.986;6.980;2023-05-25T03:52:04;9.10;99.90
52709;DHT22;38606;52.986;6.980;2023-05-25T03:54:31;9.10;99.90
52709;DHT22;38606;52.986;6.980;2023-05-25T03:56:57;9.00;99.90
52709;DHT22;38606;52.986;6.980;2023-05-25T03:59:26;9.10;99.90
52709;DHT22;38606;52.986;6.980;2023-05-25T04:01:52;9.20;99.90
52709;DHT22;38606;52.986;6.980;2023-05-25T04:04:19;9.20;99.90
52709;DHT22;38606;52.986;6.980;2023-05-25T04:06:45;9.10;99.90
52709;DHT22;38606;52.986;6.980;2023-05-25T04:09:13;9.20;99.90
52709;DHT22;38606;52.986;6.980;2023-05-25T04:11:39;9.50;99.90
52709;DHT22;38606;52.986;6.980;2023-05-25T04:14:05;9.30;99.90
52709;DHT22;38606;52.986;6.980;2023-05-25T04:16:31;9.30;99.90
52709;DHT22;38606;52.986;6.980;2023-05-25T04:18:57;9.20;99.90
52709;DHT22;38606;52.986;6.980;2023-05-25T04:21:23;9.50;99.90
52709;DHT22;38606;52.986;6.980;2023-05-25T04:23:48;9.40;99.90
52709;DHT22;38606;52.986;6.980;2023-05-25T04:26:14;9.50;99.90
52709;DHT22;38606;52.986;6.980;2023-05-25T04:28:41;9.50;99.90
52709;DHT22;38606;52.986;6.980;2023-05-25T04:31:07;9.50;99.90
52709;DHT22;38606;52.986;6.980;2023-05-25T04:33:33;9.40;99.90
52709;DHT22;38606;52.986;6.980;2023-05-25T04:36:04;9.50;99.90
52709;DHT22;38606;52.986;6.980;2023-05-25T04:38:29;9.70;99.90
52709;DHT22;38606;52.986;6.980;2023-05-25T04:40:58;9.50;99.90
52709;DHT22;38606;52.986;6.980;2023-05-25T04:43:26;9.60;99.90
52709;DHT22;38606;52.986;6.980;2023-05-25T04:45:54;9.70;99.90
52709;DHT22;38606;52.986;6.980;2023-05-25T04:48:20;9.70;99.90
52709;DHT22;38606;52.986;6.980;2023-05-25T04:50:46;9.90;99.90
52709;DHT22;38606;52.986;6.980;2023-05-25T04:53:11;9.90;99.90
52709;DHT22;38606;52.986;6.980;2023-05-25T04:55:37;10.10;99.90
52709;DHT22;38606;52.986;6.980;2023-05-25T04:58:04;9.90;99.90
52709;DHT22;38606;52.986;6.980;2023-05-25T05:00:30;10.40;99.90
52709;DHT22;38606;52.986;6.980;2023-05-25T05:02:57;10.20;99.90
52709;DHT22;38606;52.986;6.980;2023-05-25T05:05:26;10.30;99.90
52709;DHT22;38606;52.986;6.980;2023-05-25T05:07:51;10.30;99.90
52709;DHT22;38606;52.986;6.980;2023-05-25T05:10:18;10.60;99.90
52709;DHT22;38606;52.986;6.980;2023-05-25T05:12:44;10.90;99.90
52709;DHT22;38606;52.986;6.980;2023-05-25T05:15:10;10.60;99.90
52709;DHT22;38606;52.986;6.980;2023-05-25T05:17:36;10.80;99.90
52709;DHT22;38606;52.986;6.980;2023-05-25T05:20:02;10.80;99.90
52709;DHT22;38606;52.986;6.980;2023-05-25T05:22:31;11.00;99.90
52709;DHT22;38606;52.986;6.980;2023-05-25T05:24:57;11.20;99.90
52709;DHT22;38606;52.986;6.980;2023-05-25T05:27:23;11.20;99.90
52709;DHT22;38606;52.986;6.980;2023-05-25T05:29:51;11.30;99.90
52709;DHT22;38606;52.986;6.980;2023-05-25T05:32:17;11.40;99.90
52709;DHT22;38606;52.986;6.980;2023-05-25T05:34:42;11.70;99.90
52709;DHT22;38606;52.986;6.980;2023-05-25T05:37:08;11.80;99.90
52709;DHT22;38606;52.986;6.980;2023-05-25T05:39:34;11.90;99.90
52709;DHT22;38606;52.986;6.980;2023-05-25T05:42:00;11.90;99.90
52709;DHT22;38606;52.986;6.980;2023-05-25T05:44:26;12.20;99.90
52709;DHT22;38606;52.986;6.980;2023-05-25T05:46:52;12.20;99.90
52709;DHT22;38606;52.986;6.980;2023-05-25T05:49:25;12.60;99.90
52709;DHT22;38606;52.986;6.980;2023-05-25T05:51:51;12.50;99.90
52709;DHT22;38606;52.986;6.980;2023-05-25T05:54:16;12.90;99.90
52709;DHT22;38606;52.986;6.980;2023-05-25T05:56:42;12.80;99.90
52709;DHT22;38606;52.986;6.980;2023-05-25T05:59:09;13.00;99.90
52709;DHT22;38606;52.986;6.980;2023-05-25T06:01:36;13.20;99.90
52709;DHT22;38606;52.986;6.980;2023-05-25T06:04:01;13.30;99.90
52709;DHT22;38606;52.986;6.980;2023-05-25T06:06:27;13.30;99.90
52709;DHT22;38606;52.986;6.980;2023-05-25T06:08:53;13.40;99.90
52709;DHT22;38606;52.986;6.980;2023-05-25T06:11:19;13.60;99.90
52709;DHT22;38606;52.986;6.980;2023-05-25T06:13:45;13.60;99.90
52709;DHT22;38606;52.986;6.980;2023-05-25T06:16:10;13.80;99.90
52709;DHT22;38606;52.986;6.980;2023-05-25T06:18:36;13.70;99.90
52709;DHT22;38606;52.986;6.980;2023-05-25T06:21:02;13.90;99.90
52709;DHT22;38606;52.986;6.980;2023-05-25T06:23:28;13.80;99.90
52709;DHT22;38606;52.986;6.980;2023-05-25T06:25:54;13.90;99.90
52709;DHT22;38606;52.986;6.980;2023-05-25T06:28:20;13.60;99.90
52709;DHT22;38606;52.986;6.980;2023-05-25T06:30:45;14.00;99.90
52709;DHT22;38606;52.986;6.980;2023-05-25T06:33:11;13.90;99.90
52709;DHT22;38606;52.986;6.980;2023-05-25T06:35:37;13.90;99.90
52709;DHT22;38606;52.986;6.980;2023-05-25T06:38:02;14.40;99.90
52709;DHT22;38606;52.986;6.980;2023-05-25T06:40:28;14.20;99.90
52709;DHT22;38606;52.986;6.980;2023-05-25T06:42:54;14.10;99.90
52709;DHT22;38606;52.986;6.980;2023-05-25T06:45:20;14.30;99.90
52709;DHT22;38606;52.986;6.980;2023-05-25T06:47:46;14.30;99.90
52709;DHT22;38606;52.986;6.980;2023-05-25T06:50:12;14.60;99.90
52709;DHT22;38606;52.986;6.980;2023-05-25T06:52:38;14.90;99.90
52709;DHT22;38606;52.986;6.980;2023-05-25T06:55:04;14.80;99.90
52709;DHT22;38606;52.986;6.980;2023-05-25T06:57:30;15.20;99.90
52709;DHT22;38606;52.986;6.980;2023-05-25T06:59:55;15.60;99.90
52709;DHT22;38606;52.986;6.980;2023-05-25T07:02:21;15.70;99.90
52709;DHT22;38606;52.986;6.980;2023-05-25T07:04:47;15.70;99.90
52709;DHT22;38606;52.986;6.980;2023-05-25T07:07:12;15.80;99.90
52709;DHT22;38606;52.986;6.980;2023-05-25T07:09:39;15.90;99.90
52709;DHT22;38606;52.986;6.980;2023-05-25T07:12:07;16.10;99.90
52709;DHT22;38606;52.986;6.980;2023-05-25T07:14:34;15.80;99.90
52709;DHT22;38606;52.986;6.980;2023-05-25T07:17:00;16.10;99.90
52709;DHT22;38606;52.986;6.980;2023-05-25T07:19:26;16.30;99.90
52709;DHT22;38606;52.986;6.980;2023-05-25T07:21:51;16.30;99.90
52709;DHT22;38606;52.986;6.980;2023-05-25T07:24:17;16.20;99.90
52709;DHT22;38606;52.986;6.980;2023-05-25T07:26:43;16.10;99.90
52709;DHT22;38606;52.986;6.980;2023-05-25T07:29:09;16.30;99.90
52709;DHT22;38606;52.986;6.980;2023-05-25T07:31:36;16.30;99.90
52709;DHT22;38606;52.986;6.980;2023-05-25T07:34:02;16.10;99.90
52709;DHT22;38606;52.986;6.980;2023-05-25T07:36:28;16.40;99.90
52709;DHT22;38606;52.986;6.980;2023-05-25T07:38:53;16.40;99.90
52709;DHT22;38606;52.986;6.980;2023-05-25T07:41:20;16.50;99.90
52709;DHT22;38606;52.986;6.980;2023-05-25T07:43:45;17.10;99.90
52709;DHT22;38606;52.986;6.980;2023-05-25T07:46:11;16.50;99.90
52709;DHT22;38606;52.986;6.980;2023-05-25T07:48:37;16.90;99.90
52709;DHT22;38606;52.986;6.980;2023-05-25T07:51:03;16.90;99.90
52709;DHT22;38606;52.986;6.980;2023-05-25T07:53:29;16.80;99.90
52709;DHT22;38606;52.986;6.980;2023-05-25T07:55:55;16.40;99.90
52709;DHT22;38606;52.986;6.980;2023-05-25T07:58:20;16.70;99.90
52709;DHT22;38606;52.986;6.980;2023-05-25T08:00:46;17.10;99.90
52709;DHT22;38606;52.986;6.980;2023-05-25T08:03:14;16.80;99.90
52709;DHT22;38606;52.986;6.980;2023-05-25T08:05:39;17.00;99.90
52709;DHT22;38606;52.986;6.980;2023-05-25T08:08:05;17.10;99.90
52709;DHT22;38606;52.986;6.980;2023-05-25T08:10:31;17.30;99.90
52709;DHT22;38606;52.986;6.980;2023-05-25T08:12:57;16.70;99.90
52709;DHT22;38606;52.986;6.980;2023-05-25T08:15:24;17.00;99.90
52709;DHT22;38606;52.986;6.980;2023-05-25T08:17:51;17.20;99.90
52709;DHT22;38606;52.986;6.980;2023-05-25T08:20:16;17.20;99.90
52709;DHT22;38606;52.986;6.980;2023-05-25T08:22:42;17.00;99.90
52709;DHT22;38606;52.986;6.980;2023-05-25T08:25:08;17.30;99.90
52709;DHT22;38606;52.986;6.980;2023-05-25T08:27:34;17.10;99.90
52709;DHT22;38606;52.986;6.980;2023-05-25T08:30:00;17.20;99.90
52709;DHT22;38606;52.986;6.980;2023-05-25T08:32:26;16.80;99.90
52709;DHT22;38606;52.986;6.980;2023-05-25T08:34:52;17.00;99.90
52709;DHT22;38606;52.986;6.980;2023-05-25T08:37:17;16.90;99.90
52709;DHT22;38606;52.986;6.980;2023-05-25T08:39:45;16.90;99.90
52709;DHT22;38606;52.986;6.980;2023-05-25T08:42:11;17.00;99.90
52709;DHT22;38606;52.986;6.980;2023-05-25T08:44:38;17.10;99.90
52709;DHT22;38606;52.986;6.980;2023-05-25T08:47:05;17.30;99.90
52709;DHT22;38606;52.986;6.980;2023-05-25T08:49:36;17.40;99.90
52709;DHT22;38606;52.986;6.980;2023-05-25T08:52:03;17.60;99.90
52709;DHT22;38606;52.986;6.980;2023-05-25T08:54:35;17.50;99.90
52709;DHT22;38606;52.986;6.980;2023-05-25T08:57:13;17.40;99.90
52709;DHT22;38606;52.986;6.980;2023-05-25T08:59:57;17.10;99.90
52709;DHT22;38606;52.986;6.980;2023-05-25T09:02:49;17.20;99.90
52709;DHT22;38606;52.986;6.980;2023-05-25T09:05:18;17.20;99.90
52709;DHT22;38606;52.986;6.980;2023-05-25T09:07:44;17.00;99.90
52709;DHT22;38606;52.986;6.980;2023-05-25T09:10:11;17.20;99.90
52709;DHT22;38606;52.986;6.980;2023-05-25T09:12:37;17.60;99.90
52709;DHT22;38606;52.986;6.980;2023-05-25T09:15:04;17.30;99.90
52709;DHT22;38606;52.986;6.980;2023-05-25T09:17:30;17.50;99.90
52709;DHT22;38606;52.986;6.980;2023-05-25T09:19:56;17.30;99.90
52709;DHT22;38606;52.986;6.980;2023-05-25T09:22:21;17.30;99.90
52709;DHT22;38606;52.986;6.980;2023-05-25T09:24:47;17.40;99.90
52709;DHT22;38606;52.986;6.980;2023-05-25T09:27:18;17.50;99.90
52709;DHT22;38606;52.986;6.980;2023-05-25T09:29:51;17.50;99.90
52709;DHT22;38606;52.986;6.980;2023-05-25T09:32:17;17.40;99.90
52709;DHT22;38606;52.986;6.980;2023-05-25T09:34:44;17.10;99.90
52709;DHT22;38606;52.986;6.980;2023-05-25T09:37:15;17.00;99.90
52709;DHT22;38606;52.986;6.980;2023-05-25T09:39:42;17.10;99.90
52709;DHT22;38606;52.986;6.980;2023-05-25T09:42:09;16.90;99.90
52709;DHT22;38606;52.986;6.980;2023-05-25T09:44:35;17.20;99.90
52709;DHT22;38606;52.986;6.980;2023-05-25T09:47:02;17.30;99.90
52709;DHT22;38606;52.986;6.980;2023-05-25T09:49:28;17.50;99.90
52709;DHT22;38606;52.986;6.980;2023-05-25T09:51:54;17.60;99.90
52709;DHT22;38606;52.986;6.980;2023-05-25T09:54:21;17.70;99.90
52709;DHT22;38606;52.986;6.980;2023-05-25T09:56:51;17.40;99.90
52709;DHT22;38606;52.986;6.980;2023-05-25T09:59:16;17.70;99.90
52709;DHT22;38606;52.986;6.980;2023-05-25T10:01:42;17.80;99.90
52709;DHT22;38606;52.986;6.980;2023-05-25T10:04:15;17.70;99.90
52709;DHT22;38606;52.986;6.980;2023-05-25T10:06:40;17.80;99.90
52709;DHT22;38606;52.986;6.980;2023-05-25T10:09:08;17.90;99.90
52709;DHT22;38606;52.986;6.980;2023-05-25T10:11:38;17.90;99.90
52709;DHT22;38606;52.986;6.980;2023-05-25T10:14:06;17.80;99.90
52709;DHT22;38606;52.986;6.980;2023-05-25T10:16:32;18.20;99.90
52709;DHT22;38606;52.986;6.980;2023-05-25T10:19:19;18.60;99.90
52709;DHT22;38606;52.986;6.980;2023-05-25T10:21:50;18.20;99.90
52709;DHT22;38606;52.986;6.980;2023-05-25T10:27:23;18.20;99.90
52709;DHT22;38606;52.986;6.980;2023-05-25T10:29:49;18.00;99.90
52709;DHT22;38606;52.986;6.980;2023-05-25T10:32:17;18.10;99.90
52709;DHT22;38606;52.986;6.980;2023-05-25T10:34:44;18.00;99.90
52709;DHT22;38606;52.986;6.980;2023-05-25T10:37:11;18.00;99.90
52709;DHT22;38606;52.986;6.980;2023-05-25T10:39:37;18.10;99.90
52709;DHT22;38606;52.986;6.980;2023-05-25T10:42:05;18.10;99.90
52709;DHT22;38606;52.986;6.980;2023-05-25T10:44:31;18.20;99.90
52709;DHT22;38606;52.986;6.980;2023-05-25T10:47:00;18.10;99.90
52709;DHT22;38606;52.986;6.980;2023-05-25T10:49:33;18.10;99.90
52709;DHT22;38606;52.986;6.980;2023-05-25T10:52:00;18.10;99.90
52709;DHT22;38606;52.986;6.980;2023-05-25T10:54:33;18.00;99.90
52709;DHT22;38606;52.986;6.980;2023-05-25T10:57:08;17.70;99.90
52709;DHT22;38606;52.986;6.980;2023-05-25T10:59:34;17.80;99.90
52709;DHT22;38606;52.986;6.980;2023-05-25T11:02:05;18.00;99.90
52709;DHT22;38606;52.986;6.980;2023-05-25T11:04:31;18.00;99.90
52709;DHT22;38606;52.986;6.980;2023-05-25T11:09:28;17.60;99.90
52709;DHT22;38606;52.986;6.980;2023-05-25T11:17:11;17.50;99.90
52709;DHT22;38606;52.986;6.980;2023-05-25T11:19:42;17.60;99.90
52709;DHT22;38606;52.986;6.980;2023-05-25T11:22:15;17.40;99.90
52709;DHT22;38606;52.986;6.980;2023-05-25T11:24:42;17.90;99.90
52709;DHT22;38606;52.986;6.980;2023-05-25T11:27:09;17.70;99.90
52709;DHT22;38606;52.986;6.980;2023-05-25T11:29:36;17.70;99.90
52709;DHT22;38606;52.986;6.980;2023-05-25T11:32:02;17.90;99.90
52709;DHT22;38606;52.986;6.980;2023-05-25T11:34:29;17.90;99.90
52709;DHT22;38606;52.986;6.980;2023-05-25T11:36:59;17.80;99.90
52709;DHT22;38606;52.986;6.980;2023-05-25T11:39:29;18.00;99.90
52709;DHT22;38606;52.986;6.980;2023-05-25T11:42:01;17.70;99.90
52709;DHT22;38606;52.986;6.980;2023-05-25T11:44:30;18.00;99.90
52709;DHT22;38606;52.986;6.980;2023-05-25T11:46:59;16.00;99.90
52709;DHT22;38606;52.986;6.980;2023-05-25T11:49:26;17.80;99.90
52709;DHT22;38606;52.986;6.980;2023-05-25T11:51:58;17.80;99.90
52709;DHT22;38606;52.986;6.980;2023-05-25T11:54:28;17.80;99.90
52709;DHT22;38606;52.986;6.980;2023-05-25T11:56:55;18.00;99.90
52709;DHT22;38606;52.986;6.980;2023-05-25T11:59:24;17.90;99.90
52709;DHT22;38606;52.986;6.980;2023-05-25T12:01:57;18.10;99.90
52709;DHT22;38606;52.986;6.980;2023-05-25T12:04:23;18.00;99.90
52709;DHT22;38606;52.986;6.980;2023-05-25T12:06:49;17.90;99.90
52709;DHT22;38606;52.986;6.980;2023-05-25T12:09:19;18.00;99.90
52709;DHT22;38606;52.986;6.980;2023-05-25T12:11:46;17.90;99.90
52709;DHT22;38606;52.986;6.980;2023-05-25T12:14:12;17.70;99.90
52709;DHT22;38606;52.986;6.980;2023-05-25T12:16:38;18.20;99.90
52709;DHT22;38606;52.986;6.980;2023-05-25T12:19:09;18.00;99.90
52709;DHT22;38606;52.986;6.980;2023-05-25T12:21:39;18.30;99.90
52709;DHT22;38606;52.986;6.980;2023-05-25T12:24:05;17.80;99.90
52709;DHT22;38606;52.986;6.980;2023-05-25T12:26:32;17.90;99.90
52709;DHT22;38606;52.986;6.980;2023-05-25T12:31:32;18.00;99.90
52709;DHT22;38606;52.986;6.980;2023-05-25T12:34:13;17.90;99.90
52709;DHT22;38606;52.986;6.980;2023-05-25T12:36:44;18.10;99.90
52709;DHT22;38606;52.986;6.980;2023-05-25T12:39:16;18.10;99.90
52709;DHT22;38606;52.986;6.980;2023-05-25T12:41:48;18.10;99.90
52709;DHT22;38606;52.986;6.980;2023-05-25T12:44:47;17.80;99.90
52709;DHT22;38606;52.986;6.980;2023-05-25T12:47:19;18.30;99.90
52709;DHT22;38606;52.986;6.980;2023-05-25T12:50:13;18.50;99.90
52709;DHT22;38606;52.986;6.980;2023-05-25T12:52:42;18.20;99.90
52709;DHT22;38606;52.986;6.980;2023-05-25T12:55:30;19.50;99.90
52709;DHT22;38606;52.986;6.980;2023-05-25T12:58:06;18.10;99.50
52709;DHT22;38606;52.986;6.980;2023-05-25T13:03:00;17.70;99.90
52709;DHT22;38606;52.986;6.980;2023-05-25T13:05:27;17.80;99.90
52709;DHT22;38606;52.986;6.980;2023-05-25T13:07:54;17.80;99.90
52709;DHT22;38606;52.986;6.980;2023-05-25T13:10:21;17.70;99.90
52709;DHT22;38606;52.986;6.980;2023-05-25T13:12:47;17.90;99.90
52709;DHT22;38606;52.986;6.980;2023-05-25T13:15:16;16.20;99.90
52709;DHT22;38606;52.986;6.980;2023-05-25T13:17:48;17.70;99.90
52709;DHT22;38606;52.986;6.980;2023-05-25T13:20:16;18.20;99.90
52709;DHT22;38606;52.986;6.980;2023-05-25T13:22:43;17.90;99.90
52709;DHT22;38606;52.986;6.980;2023-05-25T13:25:11;18.00;99.90
52709;DHT22;38606;52.986;6.980;2023-05-25T13:27:41;17.80;99.90
52709;DHT22;38606;52.986;6.980;2023-05-25T13:30:07;17.80;99.90
52709;DHT22;38606;52.986;6.980;2023-05-25T13:32:33;17.30;99.90
52709;DHT22;38606;52.986;6.980;2023-05-25T13:34:59;17.30;99.90
52709;DHT22;38606;52.986;6.980;2023-05-25T13:37:28;17.40;99.90
52709;DHT22;38606;52.986;6.980;2023-05-25T13:39:54;17.60;99.90
52709;DHT22;38606;52.986;6.980;2023-05-25T13:42:21;17.60;99.90
52709;DHT22;38606;52.986;6.980;2023-05-25T13:44:47;17.50;99.90
52709;DHT22;38606;52.986;6.980;2023-05-25T13:47:12;17.70;99.90
52709;DHT22;38606;52.986;6.980;2023-05-25T13:49:38;17.50;99.90
52709;DHT22;38606;52.986;6.980;2023-05-25T13:52:04;17.30;99.90
52709;DHT22;38606;52.986;6.980;2023-05-25T13:54:31;17.50;99.90
52709;DHT22;38606;52.986;6.980;2023-05-25T13:56:56;17.30;99.90
52709;DHT22;38606;52.986;6.980;2023-05-25T13:59:22;17.50;99.90
52709;DHT22;38606;52.986;6.980;2023-05-25T14:01:48;17.20;99.90
52709;DHT22;38606;52.986;6.980;2023-05-25T14:04:14;17.20;99.90
52709;DHT22;38606;52.986;6.980;2023-05-25T14:06:41;17.10;99.90
52709;DHT22;38606;52.986;6.980;2023-05-25T14:09:07;17.20;99.90
52709;DHT22;38606;52.986;6.980;2023-05-25T14:11:37;17.20;99.90
52709;DHT22;38606;52.986;6.980;2023-05-25T14:14:04;17.10;99.90
52709;DHT22;38606;52.986;6.980;2023-05-25T14:16:34;16.90;99.90
52709;DHT22;38606;52.986;6.980;2023-05-25T14:19:00;16.80;99.90
52709;DHT22;38606;52.986;6.980;2023-05-25T14:21:27;17.10;99.90
52709;DHT22;38606;52.986;6.980;2023-05-25T14:23:54;17.00;99.90
52709;DHT22;38606;52.986;6.980;2023-05-25T14:26:20;17.20;99.90
52709;DHT22;38606;52.986;6.980;2023-05-25T14:28:47;16.90;99.90
52709;DHT22;38606;52.986;6.980;2023-05-25T14:31:12;17.10;99.90
52709;DHT22;38606;52.986;6.980;2023-05-25T14:33:38;17.10;99.90
52709;DHT22;38606;52.986;6.980;2023-05-25T14:36:04;17.00;99.90
52709;DHT22;38606;52.986;6.980;2023-05-25T14:38:30;17.10;99.90
52709;DHT22;38606;52.986;6.980;2023-05-25T14:40:57;17.10;99.90
52709;DHT22;38606;52.986;6.980;2023-05-25T14:43:23;17.00;99.90
52709;DHT22;38606;52.986;6.980;2023-05-25T14:45:49;16.80;99.90
52709;DHT22;38606;52.986;6.980;2023-05-25T14:48:15;16.90;99.90
52709;DHT22;38606;52.986;6.980;2023-05-25T14:50:43;16.70;99.90
52709;DHT22;38606;52.986;6.980;2023-05-25T14:53:09;16.50;99.90
52709;DHT22;38606;52.986;6.980;2023-05-25T14:55:35;16.70;99.90
52709;DHT22;38606;52.986;6.980;2023-05-25T14:58:01;16.80;99.90
52709;DHT22;38606;52.986;6.980;2023-05-25T15:00:26;16.70;99.90
52709;DHT22;38606;52.986;6.980;2023-05-25T15:02:53;16.80;99.90
52709;DHT22;38606;52.986;6.980;2023-05-25T15:05:19;16.70;99.90
52709;DHT22;38606;52.986;6.980;2023-05-25T15:07:44;16.70;99.90
52709;DHT22;38606;52.986;6.980;2023-05-25T15:10:11;16.70;99.90
52709;DHT22;38606;52.986;6.980;2023-05-25T15:12:36;16.60;99.90
52709;DHT22;38606;52.986;6.980;2023-05-25T15:15:02;16.60;99.90
52709;DHT22;38606;52.986;6.980;2023-05-25T15:17:28;16.40;99.90
52709;DHT22;38606;52.986;6.980;2023-05-25T15:19:54;16.30;99.90
52709;DHT22;38606;52.986;6.980;2023-05-25T15:22:20;16.20;99.90
52709;DHT22;38606;52.986;6.980;2023-05-25T15:24:46;16.20;99.90
52709;DHT22;38606;52.986;6.980;2023-05-25T15:27:11;16.40;99.90
52709;DHT22;38606;52.986;6.980;2023-05-25T15:29:37;14.60;99.90
52709;DHT22;38606;52.986;6.980;2023-05-25T15:32:03;16.30;99.90
52709;DHT22;38606;52.986;6.980;2023-05-25T15:34:29;16.20;99.90
52709;DHT22;38606;52.986;6.980;2023-05-25T15:36:55;16.30;99.90
52709;DHT22;38606;52.986;6.980;2023-05-25T15:39:20;16.20;99.90
52709;DHT22;38606;52.986;6.980;2023-05-25T15:41:46;15.90;99.90
52709;DHT22;38606;52.986;6.980;2023-05-25T15:44:12;16.00;99.90
52709;DHT22;38606;52.986;6.980;2023-05-25T15:46:41;16.10;99.90
52709;DHT22;38606;52.986;6.980;2023-05-25T15:49:06;15.80;99.90
52709;DHT22;38606;52.986;6.980;2023-05-25T15:51:39;15.80;99.90
52709;DHT22;38606;52.986;6.980;2023-05-25T15:54:06;15.90;99.90